sensor_id;sensor_type;location;lat;lon;timestamp;P1;durP1;ratioP1;P2;durP2;ratioP2
69985;SDS011;57328;52.054;5.294;2024-01-27T00:01:59;20.73;;;5.82;;
69985;SDS011;57328;52.054;5.294;2024-01-27T00:04:26;18.00;;;4.93;;
69985;SDS011;57328;52.054;5.294;2024-01-27T00:06:53;16.90;;;4.68;;
69985;SDS011;57328;52.054;5.294;2024-01-27T00:09:20;11.55;;;3.63;;
69985;SDS011;57328;52.054;5.294;2024-01-27T00:11:48;19.15;;;3.88;;
69985;SDS011;57328;52.054;5.294;2024-01-27T00:14:15;17.33;;;3.95;;
69985;SDS011;57328;52.054;5.294;2024-01-27T00:16:42;15.75;;;3.78;;
69985;SDS011;57328;52.054;5.294;2024-01-27T00:19:09;17.67;;;4.13;;
69985;SDS011;57328;52.054;5.294;2024-01-27T00:21:37;10.35;;;3.65;;
69985;SDS011;57328;52.054;5.294;2024-01-27T00:24:04;13.75;;;4.07;;
69985;SDS011;57328;52.054;5.294;2024-01-27T00:26:31;14.15;;;3.80;;
69985;SDS011;57328;52.054;5.294;2024-01-27T00:28:58;14.30;;;3.25;;
69985;SDS011;57328;52.054;5.294;2024-01-27T00:31:26;14.10;;;3.65;;
69985;SDS011;57328;52.054;5.294;2024-01-27T00:33:53;14.90;;;3.38;;
69985;SDS011;57328;52.054;5.294;2024-01-27T00:36:20;14.63;;;3.50;;
69985;SDS011;57328;52.054;5.294;2024-01-27T00:38:48;18.85;;;4.13;;
69985;SDS011;57328;52.054;5.294;2024-01-27T00:41:15;19.10;;;4.63;;
69985;SDS011;57328;52.054;5.294;2024-01-27T00:43:43;17.08;;;4.70;;
69985;SDS011;57328;52.054;5.294;2024-01-27T00:46:10;15.25;;;3.50;;
69985;SDS011;57328;52.054;5.294;2024-01-27T00:48:38;16.50;;;3.60;;
69985;SDS011;57328;52.054;5.294;2024-01-27T00:51:05;15.60;;;3.70;;
69985;SDS011;57328;52.054;5.294;2024-01-27T00:53:32;16.80;;;4.38;;
69985;SDS011;57328;52.054;5.294;2024-01-27T00:56:00;12.18;;;3.47;;
69985;SDS011;57328;52.054;5.294;2024-01-27T00:58:27;12.95;;;4.05;;
69985;SDS011;57328;52.054;5.294;2024-01-27T01:00:54;18.60;;;4.80;;
69985;SDS011;57328;52.054;5.294;2024-01-27T01:03:22;19.10;;;4.10;;
69985;SDS011;57328;52.054;5.294;2024-01-27T01:05:49;13.15;;;4.07;;
69985;SDS011;57328;52.054;5.294;2024-01-27T01:08:17;20.73;;;5.22;;
69985;SDS011;57328;52.054;5.294;2024-01-27T01:10:44;19.45;;;4.70;;
69985;SDS011;57328;52.054;5.294;2024-01-27T01:13:11;15.52;;;5.00;;
69985;SDS011;57328;52.054;5.294;2024-01-27T01:15:38;10.63;;;2.92;;
69985;SDS011;57328;52.054;5.294;2024-01-27T01:18:06;12.70;;;3.95;;
69985;SDS011;57328;52.054;5.294;2024-01-27T01:20:33;12.43;;;2.92;;
69985;SDS011;57328;52.054;5.294;2024-01-27T01:23:00;8.77;;;2.75;;
69985;SDS011;57328;52.054;5.294;2024-01-27T01:25:28;10.93;;;2.90;;
69985;SDS011;57328;52.054;5.294;2024-01-27T01:27:55;13.77;;;3.00;;
69985;SDS011;57328;52.054;5.294;2024-01-27T01:30:22;10.98;;;2.75;;
69985;SDS011;57328;52.054;5.294;2024-01-27T01:32:49;10.18;;;2.78;;
69985;SDS011;57328;52.054;5.294;2024-01-27T01:35:17;13.70;;;3.50;;
69985;SDS011;57328;52.054;5.294;2024-01-27T01:37:45;14.43;;;2.92;;
69985;SDS011;57328;52.054;5.294;2024-01-27T01:40:14;10.95;;;3.00;;
69985;SDS011;57328;52.054;5.294;2024-01-27T01:42:42;18.48;;;3.03;;
69985;SDS011;57328;52.054;5.294;2024-01-27T01:45:10;12.55;;;2.90;;
69985;SDS011;57328;52.054;5.294;2024-01-27T01:47:41;14.63;;;2.78;;
69985;SDS011;57328;52.054;5.294;2024-01-27T01:50:08;11.27;;;2.40;;
69985;SDS011;57328;52.054;5.294;2024-01-27T01:52:35;10.55;;;2.80;;
69985;SDS011;57328;52.054;5.294;2024-01-27T01:55:03;12.30;;;3.03;;
69985;SDS011;57328;52.054;5.294;2024-01-27T01:57:31;11.93;;;2.75;;
69985;SDS011;57328;52.054;5.294;2024-01-27T02:00:00;12.27;;;2.72;;
69985;SDS011;57328;52.054;5.294;2024-01-27T02:02:27;13.20;;;2.78;;
69985;SDS011;57328;52.054;5.294;2024-01-27T02:04:54;15.20;;;3.33;;
69985;SDS011;57328;52.054;5.294;2024-01-27T02:07:22;12.95;;;2.97;;
69985;SDS011;57328;52.054;5.294;2024-01-27T02:09:49;14.73;;;2.97;;
69985;SDS011;57328;52.054;5.294;2024-01-27T02:12:16;10.90;;;2.33;;
69985;SDS011;57328;52.054;5.294;2024-01-27T02:14:43;14.20;;;2.45;;
69985;SDS011;57328;52.054;5.294;2024-01-27T02:17:11;11.27;;;2.70;;
69985;SDS011;57328;52.054;5.294;2024-01-27T02:19:38;17.05;;;2.70;;
69985;SDS011;57328;52.054;5.294;2024-01-27T02:22:05;11.38;;;2.40;;
69985;SDS011;57328;52.054;5.294;2024-01-27T02:24:32;10.45;;;2.42;;
69985;SDS011;57328;52.054;5.294;2024-01-27T02:27:00;9.00;;;2.72;;
69985;SDS011;57328;52.054;5.294;2024-01-27T02:29:27;9.48;;;2.60;;
69985;SDS011;57328;52.054;5.294;2024-01-27T02:31:54;9.50;;;2.58;;
69985;SDS011;57328;52.054;5.294;2024-01-27T02:34:22;15.05;;;3.20;;
69985;SDS011;57328;52.054;5.294;2024-01-27T02:36:50;8.65;;;2.53;;
69985;SDS011;57328;52.054;5.294;2024-01-27T02:39:17;11.27;;;2.45;;
69985;SDS011;57328;52.054;5.294;2024-01-27T02:41:44;11.48;;;3.00;;
69985;SDS011;57328;52.054;5.294;2024-01-27T02:44:11;13.55;;;2.50;;
69985;SDS011;57328;52.054;5.294;2024-01-27T02:46:38;11.88;;;2.88;;
69985;SDS011;57328;52.054;5.294;2024-01-27T02:49:06;10.95;;;2.47;;
69985;SDS011;57328;52.054;5.294;2024-01-27T02:51:34;9.30;;;2.67;;
69985;SDS011;57328;52.054;5.294;2024-01-27T02:54:01;7.45;;;2.30;;
69985;SDS011;57328;52.054;5.294;2024-01-27T02:56:28;12.43;;;2.63;;
69985;SDS011;57328;52.054;5.294;2024-01-27T02:58:56;11.20;;;2.60;;
69985;SDS011;57328;52.054;5.294;2024-01-27T03:01:23;10.25;;;2.55;;
69985;SDS011;57328;52.054;5.294;2024-01-27T03:03:51;9.40;;;2.70;;
69985;SDS011;57328;52.054;5.294;2024-01-27T03:06:18;11.75;;;2.75;;
69985;SDS011;57328;52.054;5.294;2024-01-27T03:08:45;13.32;;;2.45;;
69985;SDS011;57328;52.054;5.294;2024-01-27T03:11:13;9.50;;;2.30;;
69985;SDS011;57328;52.054;5.294;2024-01-27T03:13:40;10.73;;;3.10;;
69985;SDS011;57328;52.054;5.294;2024-01-27T03:16:11;13.68;;;2.85;;
69985;SDS011;57328;52.054;5.294;2024-01-27T03:18:39;18.88;;;3.33;;
69985;SDS011;57328;52.054;5.294;2024-01-27T03:21:06;16.23;;;3.30;;
69985;SDS011;57328;52.054;5.294;2024-01-27T03:23:34;12.30;;;3.00;;
69985;SDS011;57328;52.054;5.294;2024-01-27T03:26:02;13.25;;;3.20;;
69985;SDS011;57328;52.054;5.294;2024-01-27T03:28:33;14.60;;;2.72;;
69985;SDS011;57328;52.054;5.294;2024-01-27T03:31:00;17.05;;;4.03;;
69985;SDS011;57328;52.054;5.294;2024-01-27T03:33:27;11.77;;;3.33;;
69985;SDS011;57328;52.054;5.294;2024-01-27T03:35:57;13.45;;;3.17;;
69985;SDS011;57328;52.054;5.294;2024-01-27T03:38:24;10.38;;;2.80;;
69985;SDS011;57328;52.054;5.294;2024-01-27T03:40:52;12.32;;;3.55;;
69985;SDS011;57328;52.054;5.294;2024-01-27T03:43:20;12.40;;;3.03;;
69985;SDS011;57328;52.054;5.294;2024-01-27T03:45:47;12.18;;;3.25;;
69985;SDS011;57328;52.054;5.294;2024-01-27T03:48:14;15.70;;;3.00;;
69985;SDS011;57328;52.054;5.294;2024-01-27T03:50:41;18.90;;;4.07;;
69985;SDS011;57328;52.054;5.294;2024-01-27T03:53:09;10.70;;;3.22;;
69985;SDS011;57328;52.054;5.294;2024-01-27T03:55:36;11.05;;;3.20;;
69985;SDS011;57328;52.054;5.294;2024-01-27T03:58:03;11.18;;;3.17;;
69985;SDS011;57328;52.054;5.294;2024-01-27T04:00:31;14.07;;;4.15;;
69985;SDS011;57328;52.054;5.294;2024-01-27T04:02:59;14.63;;;3.72;;
69985;SDS011;57328;52.054;5.294;2024-01-27T04:05:28;15.07;;;4.43;;
69985;SDS011;57328;52.054;5.294;2024-01-27T04:07:56;17.77;;;4.68;;
69985;SDS011;57328;52.054;5.294;2024-01-27T04:10:23;20.63;;;4.97;;
69985;SDS011;57328;52.054;5.294;2024-01-27T04:12:50;19.50;;;4.75;;
69985;SDS011;57328;52.054;5.294;2024-01-27T04:15:17;15.38;;;4.70;;
69985;SDS011;57328;52.054;5.294;2024-01-27T04:17:45;23.38;;;5.32;;
69985;SDS011;57328;52.054;5.294;2024-01-27T04:20:12;13.57;;;4.75;;
69985;SDS011;57328;52.054;5.294;2024-01-27T04:22:39;13.68;;;3.83;;
69985;SDS011;57328;52.054;5.294;2024-01-27T04:25:06;17.27;;;4.38;;
69985;SDS011;57328;52.054;5.294;2024-01-27T04:27:37;15.68;;;3.60;;
69985;SDS011;57328;52.054;5.294;2024-01-27T04:30:06;10.13;;;3.17;;
69985;SDS011;57328;52.054;5.294;2024-01-27T04:32:33;12.13;;;3.40;;
69985;SDS011;57328;52.054;5.294;2024-01-27T04:35:01;14.63;;;3.20;;
69985;SDS011;57328;52.054;5.294;2024-01-27T04:37:29;14.25;;;3.20;;
69985;SDS011;57328;52.054;5.294;2024-01-27T04:39:56;13.27;;;3.08;;
69985;SDS011;57328;52.054;5.294;2024-01-27T04:42:23;10.73;;;2.88;;
69985;SDS011;57328;52.054;5.294;2024-01-27T04:44:51;12.68;;;2.95;;
69985;SDS011;57328;52.054;5.294;2024-01-27T04:47:19;8.05;;;2.63;;
69985;SDS011;57328;52.054;5.294;2024-01-27T04:49:46;9.07;;;2.60;;
69985;SDS011;57328;52.054;5.294;2024-01-27T04:52:13;11.73;;;2.80;;
69985;SDS011;57328;52.054;5.294;2024-01-27T04:54:40;8.55;;;3.28;;
69985;SDS011;57328;52.054;5.294;2024-01-27T04:57:08;16.80;;;3.28;;
69985;SDS011;57328;52.054;5.294;2024-01-27T04:59:35;13.70;;;3.72;;
69985;SDS011;57328;52.054;5.294;2024-01-27T05:02:02;13.10;;;3.85;;
69985;SDS011;57328;52.054;5.294;2024-01-27T05:04:30;13.88;;;3.42;;
69985;SDS011;57328;52.054;5.294;2024-01-27T05:06:57;10.82;;;2.88;;
69985;SDS011;57328;52.054;5.294;2024-01-27T05:09:24;15.82;;;4.13;;
69985;SDS011;57328;52.054;5.294;2024-01-27T05:11:52;12.85;;;3.90;;
69985;SDS011;57328;52.054;5.294;2024-01-27T05:14:19;15.23;;;3.78;;
69985;SDS011;57328;52.054;5.294;2024-01-27T05:16:47;13.07;;;3.40;;
69985;SDS011;57328;52.054;5.294;2024-01-27T05:19:14;12.77;;;3.38;;
69985;SDS011;57328;52.054;5.294;2024-01-27T05:21:43;13.10;;;3.47;;
69985;SDS011;57328;52.054;5.294;2024-01-27T05:24:11;14.25;;;3.63;;
69985;SDS011;57328;52.054;5.294;2024-01-27T05:26:38;15.80;;;4.22;;
69985;SDS011;57328;52.054;5.294;2024-01-27T05:29:05;12.10;;;3.35;;
69985;SDS011;57328;52.054;5.294;2024-01-27T05:31:32;10.90;;;3.15;;
69985;SDS011;57328;52.054;5.294;2024-01-27T05:34:00;14.07;;;3.35;;
69985;SDS011;57328;52.054;5.294;2024-01-27T05:36:28;18.98;;;3.67;;
69985;SDS011;57328;52.054;5.294;2024-01-27T05:38:55;15.52;;;4.38;;
69985;SDS011;57328;52.054;5.294;2024-01-27T05:41:26;13.45;;;4.38;;
69985;SDS011;57328;52.054;5.294;2024-01-27T05:43:55;14.23;;;4.25;;
69985;SDS011;57328;52.054;5.294;2024-01-27T05:46:25;11.68;;;4.45;;
69985;SDS011;57328;52.054;5.294;2024-01-27T05:48:52;14.07;;;4.43;;
69985;SDS011;57328;52.054;5.294;2024-01-27T05:51:21;13.43;;;4.28;;
69985;SDS011;57328;52.054;5.294;2024-01-27T05:53:49;13.98;;;4.13;;
69985;SDS011;57328;52.054;5.294;2024-01-27T05:56:16;11.57;;;3.90;;
69985;SDS011;57328;52.054;5.294;2024-01-27T05:58:49;11.43;;;4.10;;
69985;SDS011;57328;52.054;5.294;2024-01-27T06:01:19;13.73;;;4.50;;
69985;SDS011;57328;52.054;5.294;2024-01-27T06:03:47;14.73;;;4.10;;
69985;SDS011;57328;52.054;5.294;2024-01-27T06:06:14;13.50;;;4.47;;
69985;SDS011;57328;52.054;5.294;2024-01-27T06:08:42;11.68;;;4.70;;
69985;SDS011;57328;52.054;5.294;2024-01-27T06:11:09;9.30;;;3.85;;
69985;SDS011;57328;52.054;5.294;2024-01-27T06:13:36;13.55;;;3.53;;
69985;SDS011;57328;52.054;5.294;2024-01-27T06:16:08;11.73;;;3.75;;
69985;SDS011;57328;52.054;5.294;2024-01-27T06:18:36;18.30;;;4.10;;
69985;SDS011;57328;52.054;5.294;2024-01-27T06:21:05;16.02;;;4.32;;
69985;SDS011;57328;52.054;5.294;2024-01-27T06:23:33;10.40;;;3.90;;
69985;SDS011;57328;52.054;5.294;2024-01-27T06:26:04;9.93;;;4.15;;
69985;SDS011;57328;52.054;5.294;2024-01-27T06:28:31;13.40;;;4.45;;
69985;SDS011;57328;52.054;5.294;2024-01-27T06:30:58;11.32;;;3.80;;
69985;SDS011;57328;52.054;5.294;2024-01-27T06:33:25;15.95;;;3.88;;
69985;SDS011;57328;52.054;5.294;2024-01-27T06:35:53;10.70;;;3.88;;
69985;SDS011;57328;52.054;5.294;2024-01-27T06:38:20;13.05;;;4.00;;
69985;SDS011;57328;52.054;5.294;2024-01-27T06:40:47;10.95;;;3.58;;
69985;SDS011;57328;52.054;5.294;2024-01-27T06:43:15;27.85;;;4.75;;
69985;SDS011;57328;52.054;5.294;2024-01-27T06:45:42;19.60;;;4.40;;
69985;SDS011;57328;52.054;5.294;2024-01-27T06:48:09;10.57;;;3.97;;
69985;SDS011;57328;52.054;5.294;2024-01-27T06:50:36;12.18;;;4.43;;
69985;SDS011;57328;52.054;5.294;2024-01-27T06:53:04;13.85;;;4.38;;
69985;SDS011;57328;52.054;5.294;2024-01-27T06:55:31;10.45;;;4.22;;
69985;SDS011;57328;52.054;5.294;2024-01-27T06:57:58;14.43;;;4.97;;
69985;SDS011;57328;52.054;5.294;2024-01-27T07:00:25;12.13;;;5.05;;
69985;SDS011;57328;52.054;5.294;2024-01-27T07:02:53;19.00;;;4.80;;
69985;SDS011;57328;52.054;5.294;2024-01-27T07:05:22;14.52;;;4.90;;
69985;SDS011;57328;52.054;5.294;2024-01-27T07:07:49;12.95;;;4.70;;
69985;SDS011;57328;52.054;5.294;2024-01-27T07:10:16;14.55;;;4.85;;
69985;SDS011;57328;52.054;5.294;2024-01-27T07:12:43;17.33;;;4.93;;
69985;SDS011;57328;52.054;5.294;2024-01-27T07:15:11;11.85;;;4.70;;
69985;SDS011;57328;52.054;5.294;2024-01-27T07:17:38;13.63;;;5.28;;
69985;SDS011;57328;52.054;5.294;2024-01-27T07:20:05;13.25;;;5.05;;
69985;SDS011;57328;52.054;5.294;2024-01-27T07:22:33;12.68;;;5.00;;
69985;SDS011;57328;52.054;5.294;2024-01-27T07:25:00;14.90;;;5.38;;
69985;SDS011;57328;52.054;5.294;2024-01-27T07:27:27;13.70;;;4.82;;
69985;SDS011;57328;52.054;5.294;2024-01-27T07:29:55;14.05;;;5.55;;
69985;SDS011;57328;52.054;5.294;2024-01-27T07:32:22;20.85;;;5.75;;
69985;SDS011;57328;52.054;5.294;2024-01-27T07:34:49;15.10;;;5.40;;
69985;SDS011;57328;52.054;5.294;2024-01-27T07:37:17;18.83;;;8.38;;
69985;SDS011;57328;52.054;5.294;2024-01-27T07:39:45;16.10;;;5.65;;
69985;SDS011;57328;52.054;5.294;2024-01-27T07:42:12;15.05;;;5.30;;
69985;SDS011;57328;52.054;5.294;2024-01-27T07:44:39;12.52;;;4.80;;
69985;SDS011;57328;52.054;5.294;2024-01-27T07:47:07;11.90;;;4.80;;
69985;SDS011;57328;52.054;5.294;2024-01-27T07:49:35;18.67;;;5.20;;
69985;SDS011;57328;52.054;5.294;2024-01-27T07:52:02;18.35;;;5.57;;
69985;SDS011;57328;52.054;5.294;2024-01-27T07:54:29;16.65;;;5.80;;
69985;SDS011;57328;52.054;5.294;2024-01-27T07:56:58;17.42;;;5.65;;
69985;SDS011;57328;52.054;5.294;2024-01-27T07:59:25;11.85;;;5.05;;
69985;SDS011;57328;52.054;5.294;2024-01-27T08:01:52;20.73;;;4.90;;
69985;SDS011;57328;52.054;5.294;2024-01-27T08:04:20;11.07;;;4.65;;
69985;SDS011;57328;52.054;5.294;2024-01-27T08:06:47;13.70;;;5.00;;
69985;SDS011;57328;52.054;5.294;2024-01-27T08:09:16;14.57;;;5.07;;
69985;SDS011;57328;52.054;5.294;2024-01-27T08:11:43;14.48;;;5.35;;
69985;SDS011;57328;52.054;5.294;2024-01-27T08:14:11;18.50;;;5.78;;
69985;SDS011;57328;52.054;5.294;2024-01-27T08:16:39;13.80;;;5.60;;
69985;SDS011;57328;52.054;5.294;2024-01-27T08:19:06;19.98;;;5.60;;
69985;SDS011;57328;52.054;5.294;2024-01-27T08:21:33;19.48;;;6.07;;
69985;SDS011;57328;52.054;5.294;2024-01-27T08:24:01;14.68;;;5.47;;
69985;SDS011;57328;52.054;5.294;2024-01-27T08:26:28;15.13;;;5.97;;
69985;SDS011;57328;52.054;5.294;2024-01-27T08:28:56;17.65;;;6.03;;
69985;SDS011;57328;52.054;5.294;2024-01-27T08:31:24;15.88;;;6.35;;
69985;SDS011;57328;52.054;5.294;2024-01-27T08:33:51;21.83;;;7.57;;
69985;SDS011;57328;52.054;5.294;2024-01-27T08:36:19;18.65;;;6.20;;
69985;SDS011;57328;52.054;5.294;2024-01-27T08:38:46;17.67;;;7.00;;
69985;SDS011;57328;52.054;5.294;2024-01-27T08:41:14;18.02;;;6.65;;
69985;SDS011;57328;52.054;5.294;2024-01-27T08:43:41;13.15;;;5.70;;
69985;SDS011;57328;52.054;5.294;2024-01-27T08:46:09;17.75;;;6.28;;
69985;SDS011;57328;52.054;5.294;2024-01-27T08:48:38;14.73;;;5.57;;
69985;SDS011;57328;52.054;5.294;2024-01-27T08:51:10;16.08;;;6.03;;
69985;SDS011;57328;52.054;5.294;2024-01-27T08:53:39;18.48;;;6.60;;
69985;SDS011;57328;52.054;5.294;2024-01-27T08:56:06;18.75;;;7.97;;
69985;SDS011;57328;52.054;5.294;2024-01-27T08:58:36;14.80;;;6.30;;
69985;SDS011;57328;52.054;5.294;2024-01-27T09:01:03;19.30;;;7.05;;
69985;SDS011;57328;52.054;5.294;2024-01-27T09:03:34;21.83;;;9.13;;
69985;SDS011;57328;52.054;5.294;2024-01-27T09:06:01;21.38;;;7.30;;
69985;SDS011;57328;52.054;5.294;2024-01-27T09:08:28;17.45;;;6.05;;
69985;SDS011;57328;52.054;5.294;2024-01-27T09:10:55;56.78;;;21.50;;
69985;SDS011;57328;52.054;5.294;2024-01-27T09:13:23;45.45;;;18.85;;
69985;SDS011;57328;52.054;5.294;2024-01-27T09:15:50;25.08;;;9.20;;
69985;SDS011;57328;52.054;5.294;2024-01-27T09:18:17;22.83;;;7.75;;
69985;SDS011;57328;52.054;5.294;2024-01-27T09:20:44;18.45;;;6.90;;
69985;SDS011;57328;52.054;5.294;2024-01-27T09:23:12;22.55;;;7.60;;
69985;SDS011;57328;52.054;5.294;2024-01-27T09:25:39;21.50;;;7.45;;
69985;SDS011;57328;52.054;5.294;2024-01-27T09:28:06;21.02;;;7.53;;
69985;SDS011;57328;52.054;5.294;2024-01-27T09:30:34;19.70;;;7.47;;
69985;SDS011;57328;52.054;5.294;2024-01-27T09:33:05;19.20;;;6.93;;
69985;SDS011;57328;52.054;5.294;2024-01-27T09:35:32;25.77;;;7.57;;
69985;SDS011;57328;52.054;5.294;2024-01-27T09:37:59;21.55;;;8.00;;
69985;SDS011;57328;52.054;5.294;2024-01-27T09:40:27;19.67;;;7.78;;
69985;SDS011;57328;52.054;5.294;2024-01-27T09:42:55;21.73;;;7.20;;
69985;SDS011;57328;52.054;5.294;2024-01-27T09:45:26;20.63;;;7.50;;
69985;SDS011;57328;52.054;5.294;2024-01-27T09:47:56;21.63;;;6.97;;
69985;SDS011;57328;52.054;5.294;2024-01-27T09:50:25;17.63;;;7.10;;
69985;SDS011;57328;52.054;5.294;2024-01-27T09:52:53;18.48;;;7.40;;
69985;SDS011;57328;52.054;5.294;2024-01-27T09:55:20;19.88;;;7.43;;
69985;SDS011;57328;52.054;5.294;2024-01-27T09:57:48;19.38;;;7.30;;
69985;SDS011;57328;52.054;5.294;2024-01-27T10:00:15;17.35;;;7.50;;
69985;SDS011;57328;52.054;5.294;2024-01-27T10:02:44;22.83;;;8.05;;
69985;SDS011;57328;52.054;5.294;2024-01-27T10:05:13;19.17;;;6.85;;
69985;SDS011;57328;52.054;5.294;2024-01-27T10:07:41;22.33;;;8.63;;
69985;SDS011;57328;52.054;5.294;2024-01-27T10:10:09;20.35;;;7.97;;
69985;SDS011;57328;52.054;5.294;2024-01-27T10:12:40;21.83;;;7.90;;
69985;SDS011;57328;52.054;5.294;2024-01-27T10:15:20;20.90;;;7.60;;
69985;SDS011;57328;52.054;5.294;2024-01-27T10:17:47;20.27;;;8.30;;
69985;SDS011;57328;52.054;5.294;2024-01-27T10:20:15;21.60;;;7.60;;
69985;SDS011;57328;52.054;5.294;2024-01-27T10:22:45;24.30;;;8.02;;
69985;SDS011;57328;52.054;5.294;2024-01-27T10:25:12;18.35;;;7.22;;
69985;SDS011;57328;52.054;5.294;2024-01-27T10:27:41;20.73;;;7.68;;
69985;SDS011;57328;52.054;5.294;2024-01-27T10:30:15;18.70;;;6.80;;
69985;SDS011;57328;52.054;5.294;2024-01-27T10:32:43;22.15;;;7.78;;
69985;SDS011;57328;52.054;5.294;2024-01-27T10:35:11;17.67;;;6.75;;
69985;SDS011;57328;52.054;5.294;2024-01-27T10:37:38;18.67;;;7.25;;
69985;SDS011;57328;52.054;5.294;2024-01-27T10:40:06;20.33;;;7.60;;
69985;SDS011;57328;52.054;5.294;2024-01-27T10:42:34;26.35;;;7.80;;
69985;SDS011;57328;52.054;5.294;2024-01-27T10:45:02;22.80;;;7.15;;
69985;SDS011;57328;52.054;5.294;2024-01-27T10:47:30;21.58;;;7.85;;
69985;SDS011;57328;52.054;5.294;2024-01-27T10:49:58;19.42;;;7.22;;
69985;SDS011;57328;52.054;5.294;2024-01-27T10:52:30;31.52;;;10.05;;
69985;SDS011;57328;52.054;5.294;2024-01-27T10:54:59;19.85;;;7.30;;
69985;SDS011;57328;52.054;5.294;2024-01-27T10:57:30;16.10;;;7.60;;
69985;SDS011;57328;52.054;5.294;2024-01-27T10:59:57;23.55;;;7.35;;
69985;SDS011;57328;52.054;5.294;2024-01-27T11:02:25;19.42;;;7.43;;
69985;SDS011;57328;52.054;5.294;2024-01-27T11:04:52;23.25;;;8.07;;
69985;SDS011;57328;52.054;5.294;2024-01-27T11:07:20;15.85;;;7.13;;
69985;SDS011;57328;52.054;5.294;2024-01-27T11:09:51;22.40;;;7.47;;
69985;SDS011;57328;52.054;5.294;2024-01-27T11:12:18;17.90;;;7.05;;
69985;SDS011;57328;52.054;5.294;2024-01-27T11:14:46;18.30;;;6.43;;
69985;SDS011;57328;52.054;5.294;2024-01-27T11:17:15;21.08;;;7.47;;
69985;SDS011;57328;52.054;5.294;2024-01-27T11:19:44;19.45;;;7.05;;
69985;SDS011;57328;52.054;5.294;2024-01-27T11:24:39;18.38;;;6.35;;
69985;SDS011;57328;52.054;5.294;2024-01-27T11:27:06;23.48;;;6.32;;
69985;SDS011;57328;52.054;5.294;2024-01-27T11:29:34;18.08;;;6.97;;
69985;SDS011;57328;52.054;5.294;2024-01-27T11:34:42;21.38;;;6.05;;
69985;SDS011;57328;52.054;5.294;2024-01-27T11:37:11;20.63;;;6.25;;
69985;SDS011;57328;52.054;5.294;2024-01-27T11:39:39;19.25;;;6.18;;
69985;SDS011;57328;52.054;5.294;2024-01-27T11:42:10;19.05;;;5.13;;
69985;SDS011;57328;52.054;5.294;2024-01-27T11:44:41;22.33;;;6.55;;
69985;SDS011;57328;52.054;5.294;2024-01-27T11:47:15;15.25;;;5.63;;
69985;SDS011;57328;52.054;5.294;2024-01-27T11:49:44;18.00;;;5.55;;
69985;SDS011;57328;52.054;5.294;2024-01-27T11:54:45;19.95;;;5.95;;
69985;SDS011;57328;52.054;5.294;2024-01-27T11:57:13;25.17;;;6.55;;
69985;SDS011;57328;52.054;5.294;2024-01-27T11:59:40;18.50;;;5.93;;
69985;SDS011;57328;52.054;5.294;2024-01-27T12:02:07;17.50;;;5.88;;
69985;SDS011;57328;52.054;5.294;2024-01-27T12:04:35;22.55;;;6.88;;
69985;SDS011;57328;52.054;5.294;2024-01-27T12:07:02;21.42;;;6.05;;
69985;SDS011;57328;52.054;5.294;2024-01-27T12:09:30;16.73;;;5.43;;
69985;SDS011;57328;52.054;5.294;2024-01-27T12:11:58;18.88;;;5.35;;
69985;SDS011;57328;52.054;5.294;2024-01-27T12:14:25;18.55;;;6.05;;
69985;SDS011;57328;52.054;5.294;2024-01-27T12:16:52;16.48;;;5.53;;
69985;SDS011;57328;52.054;5.294;2024-01-27T12:19:20;18.95;;;5.32;;
69985;SDS011;57328;52.054;5.294;2024-01-27T12:21:48;20.77;;;5.70;;
69985;SDS011;57328;52.054;5.294;2024-01-27T12:24:15;17.40;;;5.22;;
69985;SDS011;57328;52.054;5.294;2024-01-27T12:26:48;12.73;;;4.35;;
69985;SDS011;57328;52.054;5.294;2024-01-27T12:29:15;19.15;;;5.40;;
69985;SDS011;57328;52.054;5.294;2024-01-27T12:31:42;15.57;;;4.93;;
69985;SDS011;57328;52.054;5.294;2024-01-27T12:34:10;18.63;;;5.55;;
69985;SDS011;57328;52.054;5.294;2024-01-27T12:36:41;21.73;;;5.35;;
69985;SDS011;57328;52.054;5.294;2024-01-27T12:39:08;21.75;;;5.57;;
69985;SDS011;57328;52.054;5.294;2024-01-27T12:41:36;18.38;;;4.68;;
69985;SDS011;57328;52.054;5.294;2024-01-27T12:44:03;13.98;;;4.45;;
69985;SDS011;57328;52.054;5.294;2024-01-27T12:46:31;18.38;;;5.28;;
69985;SDS011;57328;52.054;5.294;2024-01-27T12:48:58;12.57;;;4.43;;
69985;SDS011;57328;52.054;5.294;2024-01-27T12:51:26;13.18;;;4.97;;
69985;SDS011;57328;52.054;5.294;2024-01-27T12:53:53;15.48;;;3.70;;
69985;SDS011;57328;52.054;5.294;2024-01-27T12:56:20;14.02;;;3.75;;
69985;SDS011;57328;52.054;5.294;2024-01-27T12:58:47;17.38;;;3.85;;
69985;SDS011;57328;52.054;5.294;2024-01-27T13:01:15;12.15;;;3.80;;
69985;SDS011;57328;52.054;5.294;2024-01-27T13:03:42;18.05;;;5.35;;
69985;SDS011;57328;52.054;5.294;2024-01-27T13:06:11;17.73;;;3.75;;
69985;SDS011;57328;52.054;5.294;2024-01-27T13:08:39;17.67;;;4.18;;
69985;SDS011;57328;52.054;5.294;2024-01-27T13:11:08;20.10;;;4.53;;
69985;SDS011;57328;52.054;5.294;2024-01-27T13:13:35;17.85;;;4.60;;
69985;SDS011;57328;52.054;5.294;2024-01-27T13:16:03;17.20;;;4.32;;
69985;SDS011;57328;52.054;5.294;2024-01-27T13:18:30;19.80;;;4.50;;
69985;SDS011;57328;52.054;5.294;2024-01-27T13:20:58;22.23;;;4.60;;
69985;SDS011;57328;52.054;5.294;2024-01-27T13:23:25;18.52;;;4.75;;
69985;SDS011;57328;52.054;5.294;2024-01-27T13:25:52;20.77;;;4.50;;
69985;SDS011;57328;52.054;5.294;2024-01-27T13:28:39;18.95;;;4.97;;
69985;SDS011;57328;52.054;5.294;2024-01-27T13:31:07;17.83;;;4.93;;
69985;SDS011;57328;52.054;5.294;2024-01-27T13:33:34;15.52;;;4.72;;
69985;SDS011;57328;52.054;5.294;2024-01-27T13:36:02;19.85;;;4.90;;
69985;SDS011;57328;52.054;5.294;2024-01-27T13:38:30;16.63;;;5.40;;
69985;SDS011;57328;52.054;5.294;2024-01-27T13:40:57;20.08;;;6.43;;
69985;SDS011;57328;52.054;5.294;2024-01-27T13:43:24;16.08;;;5.35;;
69985;SDS011;57328;52.054;5.294;2024-01-27T13:45:51;18.58;;;5.03;;
69985;SDS011;57328;52.054;5.294;2024-01-27T13:48:21;19.33;;;4.93;;
69985;SDS011;57328;52.054;5.294;2024-01-27T13:50:49;17.65;;;5.35;;
69985;SDS011;57328;52.054;5.294;2024-01-27T13:53:16;15.57;;;5.10;;
69985;SDS011;57328;52.054;5.294;2024-01-27T13:55:45;18.42;;;5.35;;
69985;SDS011;57328;52.054;5.294;2024-01-27T13:58:13;18.17;;;5.53;;
69985;SDS011;57328;52.054;5.294;2024-01-27T14:00:40;17.95;;;5.18;;
69985;SDS011;57328;52.054;5.294;2024-01-27T14:03:07;17.33;;;5.20;;
69985;SDS011;57328;52.054;5.294;2024-01-27T14:05:35;21.63;;;5.65;;
69985;SDS011;57328;52.054;5.294;2024-01-27T14:08:04;18.90;;;6.07;;
69985;SDS011;57328;52.054;5.294;2024-01-27T14:10:33;14.25;;;4.57;;
69985;SDS011;57328;52.054;5.294;2024-01-27T14:13:01;15.23;;;4.80;;
69985;SDS011;57328;52.054;5.294;2024-01-27T14:15:35;19.63;;;5.07;;
69985;SDS011;57328;52.054;5.294;2024-01-27T14:18:03;19.30;;;4.97;;
69985;SDS011;57328;52.054;5.294;2024-01-27T14:20:32;18.35;;;4.80;;
69985;SDS011;57328;52.054;5.294;2024-01-27T14:23:03;17.77;;;4.60;;
69985;SDS011;57328;52.054;5.294;2024-01-27T14:25:30;18.25;;;5.00;;
69985;SDS011;57328;52.054;5.294;2024-01-27T14:27:57;17.95;;;4.15;;
69985;SDS011;57328;52.054;5.294;2024-01-27T14:30:25;13.93;;;4.60;;
69985;SDS011;57328;52.054;5.294;2024-01-27T14:32:52;16.42;;;4.72;;
69985;SDS011;57328;52.054;5.294;2024-01-27T14:35:19;18.13;;;4.53;;
69985;SDS011;57328;52.054;5.294;2024-01-27T14:37:46;19.33;;;4.32;;
69985;SDS011;57328;52.054;5.294;2024-01-27T14:40:14;13.00;;;3.63;;
69985;SDS011;57328;52.054;5.294;2024-01-27T14:42:41;17.98;;;4.25;;
69985;SDS011;57328;52.054;5.294;2024-01-27T14:45:09;19.15;;;4.25;;
69985;SDS011;57328;52.054;5.294;2024-01-27T14:47:36;17.30;;;4.82;;